Time;durP1;ratioP1;P1;durP2;ratioP2;P2;SDS_P1;SDS_P2;PMS_P1;PMS_P2;Temp;Humidity;BMP_temperature;BMP_pressure;BME280_temperature;BME280_humidity;BME280_pressure;Samples;Min_cycle;Max_cycle;Signal;HPM_P1;HPM_P2
2022/09/09 00:04:31;;;;;;;3.25;1.20;;;;;;;20.33;68.63;96625.84;10516053;28;20051;-58
2022/09/09 00:10:19;;;;;;;1.30;1.20;;;;;;;20.33;68.58;96619.66;10498335;28;20048;-59
2022/09/09 00:15:59;;;;;;;0.95;0.95;;;;;;;20.33;68.65;96628.53;10496733;28;20059;-59
2022/09/09 00:21:22;;;;;;;2.17;1.20;;;;;;;20.33;68.80;96625.84;10501341;28;20052;-59
2022/09/09 00:26:45;;;;;;;2.65;1.30;;;;;;;20.33;68.63;96630.47;10476634;28;20052;-58
2022/09/09 00:32:16;;;;;;;0.93;0.93;;;;;;;20.32;68.65;96623.47;10499634;28;20053;-59
2022/09/09 00:37:35;;;;;;;1.67;1.20;;;;;;;20.31;68.59;96611.84;10501646;28;20044;-58
2022/09/09 00:43:19;;;;;;;1.02;0.98;;;;;;;20.31;68.51;96611.84;10542015;28;20051;-60
2022/09/09 00:48:41;;;;;;;1.35;1.10;;;;;;;20.31;68.60;96628.09;10520550;28;20059;-58
2022/09/09 00:54:20;;;;;;;1.27;1.15;;;;;;;20.31;68.55;96632.72;10539075;28;20113;-59
2022/09/09 00:59:48;;;;;;;1.30;1.20;;;;;;;20.30;68.64;96629.19;10534899;28;20048;-59
2022/09/09 01:05:20;;;;;;;0.93;0.93;;;;;;;20.31;68.56;96628.09;10529375;28;20051;-49
2022/09/09 01:11:00;;;;;;;1.25;1.15;;;;;;;20.30;68.66;96631.91;10527167;28;20052;-49
2022/09/09 01:16:22;;;;;;;1.10;0.95;;;;;;;20.31;68.51;96635.41;10553102;28;20035;-50
2022/09/09 01:21:50;;;;;;;2.05;1.30;;;;;;;20.31;68.52;96638.13;10546980;28;20392;-47
2022/09/09 01:27:10;;;;;;;1.23;1.10;;;;;;;20.30;68.43;96633.81;10501831;28;20059;-49
2022/09/09 01:32:52;;;;;;;1.10;1.00;;;;;;;20.30;68.48;96626.50;10527032;28;20404;-48
2022/09/09 01:38:12;;;;;;;2.05;1.10;;;;;;;20.29;68.46;96619.50;10525259;28;20060;-49
2022/09/09 01:43:32;;;;;;;1.77;1.17;;;;;;;20.30;68.47;96615.66;10527930;28;20126;-47
2022/09/09 01:49:29;;;;;;;1.20;1.00;;;;;;;20.30;68.41;96614.88;10553672;28;20376;-48
2022/09/09 01:55:08;;;;;;;1.10;1.00;;;;;;;20.28;68.46;96609.81;10551321;28;20044;-50
2022/09/09 02:00:33;;;;;;;1.48;1.00;;;;;;;20.28;68.36;96617.13;10517030;28;20052;-49
2022/09/09 02:06:12;;;;;;;1.27;1.00;;;;;;;20.29;68.42;96614.09;10523701;28;20056;-47
2022/09/09 02:11:32;;;;;;;0.90;0.90;;;;;;;20.28;68.42;96625.25;10566015;28;20078;-48
2022/09/09 02:17:14;;;;;;;0.80;0.80;;;;;;;20.29;68.36;96627.63;10526941;28;20056;-52
2022/09/09 02:22:50;;;;;;;1.00;0.90;;;;;;;20.29;68.22;96624.13;10523672;28;20055;-49
2022/09/09 02:28:12;;;;;;;1.25;0.80;;;;;;;20.28;68.42;96623.31;10538898;28;20048;-47
2022/09/09 02:33:41;;;;;;;1.15;1.05;;;;;;;20.28;68.35;96626.03;10523856;28;20059;-50
2022/09/09 02:39:02;;;;;;;1.17;1.02;;;;;;;20.27;68.50;96632.59;10523257;28;20052;-49
2022/09/09 02:44:25;;;;;;;0.88;0.75;;;;;;;20.28;68.40;96627.97;10521047;28;20477;-48
2022/09/09 02:50:06;;;;;;;1.23;0.98;;;;;;;20.28;68.28;96627.97;10552059;28;20048;-47
2022/09/09 02:55:39;;;;;;;1.10;0.95;;;;;;;20.26;68.19;96625.56;10514985;28;20048;-47
2022/09/09 03:01:02;;;;;;;1.10;0.90;;;;;;;20.27;68.33;96627.16;10526622;28;20130;-50
2022/09/09 03:06:22;;;;;;;1.10;0.90;;;;;;;20.26;68.27;96628.28;10524419;28;20056;-47
2022/09/09 03:11:50;;;;;;;0.90;0.80;;;;;;;20.27;68.27;96634.50;10531585;28;20044;-46
2022/09/09 03:17:10;;;;;;;1.27;0.77;;;;;;;20.26;68.33;96628.28;10531330;28;20055;-48
2022/09/09 03:22:37;;;;;;;0.77;0.75;;;;;;;20.25;68.20;96629.41;10543901;28;20036;-47
2022/09/09 03:27:57;;;;;;;0.90;0.90;;;;;;;20.25;68.14;96636.75;10523073;28;20047;-47
2022/09/09 03:33:17;;;;;;;1.10;0.95;;;;;;;20.27;68.23;96637.22;10530371;28;21092;-49
2022/09/09 03:38:39;;;;;;;0.80;0.80;;;;;;;20.25;68.22;96634.03;10508898;28;20056;-47
2022/09/09 03:43:59;;;;;;;1.00;0.90;;;;;;;20.25;68.14;96636.75;10544935;28;20048;-46
2022/09/09 03:49:23;;;;;;;1.05;0.90;;;;;;;20.25;68.24;96631.34;10508486;28;20415;-46
2022/09/09 03:54:42;;;;;;;0.80;0.70;;;;;;;20.24;68.12;96633.25;10529702;28;20063;-48
2022/09/09 04:00:04;;;;;;;0.70;0.70;;;;;;;20.24;68.14;96624.34;10534595;28;20070;-48
2022/09/09 04:05:25;;;;;;;0.80;0.77;;;;;;;20.24;68.12;96616.22;10550532;28;20052;-47
2022/09/09 04:10:46;;;;;;;0.80;0.80;;;;;;;20.23;68.04;96618.16;10544475;28;20063;-46
2022/09/09 04:16:07;;;;;;;0.80;0.80;;;;;;;20.24;68.09;96622.41;10556732;28;20047;-47
2022/09/09 04:21:29;;;;;;;1.05;0.95;;;;;;;20.24;68.27;96621.63;10527529;28;20051;-47
2022/09/09 04:26:48;;;;;;;0.70;0.70;;;;;;;20.24;68.31;96619.72;10526684;28;20105;-47
2022/09/09 04:32:08;;;;;;;1.85;0.93;;;;;;;20.23;68.23;96633.56;10529730;28;20044;-49
2022/09/09 04:37:28;;;;;;;0.77;0.70;;;;;;;20.23;68.28;96625.44;10527699;28;20033;-50
2022/09/09 04:42:49;;;;;;;0.80;0.70;;;;;;;20.23;68.36;96628.97;10523729;28;20044;-49
2022/09/09 04:48:12;;;;;;;1.45;0.70;;;;;;;20.24;68.46;96632.44;10527426;28;20051;-47
2022/09/09 04:53:33;;;;;;;1.13;0.82;;;;;;;20.23;68.28;96625.44;10542424;28;20044;-50
2022/09/09 04:58:54;;;;;;;4.60;1.33;;;;;;;20.23;68.35;96636.25;10526742;28;20048;-48
2022/09/09 05:04:16;;;;;;;5.50;1.40;;;;;;;20.22;68.26;96635.47;10541539;28;20487;-50
2022/09/09 05:09:36;;;;;;;5.30;1.83;;;;;;;20.22;68.29;96632.78;10537712;28;20086;-47
2022/09/09 05:14:56;;;;;;;9.98;1.80;;;;;;;20.23;68.32;96636.25;10541720;28;20097;-48
2022/09/09 05:20:16;;;;;;;3.95;1.60;;;;;;;20.21;66.87;96633.09;10546790;28;20051;-47
2022/09/09 05:25:36;;;;;;;3.00;1.52;;;;;;;20.19;67.13;96629.94;10541522;28;20055;-47
2022/09/09 05:31:04;;;;;;;2.63;1.48;;;;;;;20.19;67.39;96629.94;10540637;28;20044;-48
2022/09/09 05:36:25;;;;;;;2.42;1.58;;;;;;;20.21;67.42;96631.22;10525789;28;20052;-46
2022/09/09 05:41:48;;;;;;;4.53;1.70;;;;;;;20.20;67.65;96643.13;10525505;28;20117;-47
2022/09/09 05:47:09;;;;;;;4.05;1.83;;;;;;;20.20;67.54;96637.72;10525402;28;20056;-46
2022/09/09 05:52:29;;;;;;;6.22;1.60;;;;;;;20.20;67.58;96648.56;10527771;28;20048;-48
2022/09/09 05:57:51;;;;;;;4.70;1.92;;;;;;;20.19;67.48;96655.09;10547553;28;20042;-47
2022/09/09 06:03:11;;;;;;;3.58;1.58;;;;;;;20.19;67.44;96657.81;10558487;28;20047;-46
2022/09/09 06:08:36;;;;;;;3.92;1.65;;;;;;;20.19;67.39;96663.22;10531460;28;20052;-48
2022/09/09 06:13:57;;;;;;;5.45;1.95;;;;;;;20.19;67.35;96660.50;10538560;28;20059;-46
2022/09/09 06:19:17;;;;;;;3.63;1.60;;;;;;;20.19;67.35;96660.50;10542999;28;20049;-47
2022/09/09 06:24:37;;;;;;;5.72;1.92;;;;;;;20.20;67.40;96661.28;10538985;28;20064;-47
2022/09/09 06:29:57;;;;;;;5.20;2.10;;;;;;;20.19;67.44;96663.22;10516420;28;20177;-48
2022/09/09 06:35:17;;;;;;;2.60;1.55;;;;;;;20.19;67.38;96665.91;10552650;28;20036;-49
2022/09/09 06:40:36;;;;;;;5.28;1.80;;;;;;;20.19;67.28;96668.63;10516590;28;20945;-49
2022/09/09 06:46:02;;;;;;;2.58;1.73;;;;;;;20.19;67.20;96673.22;10538595;28;20036;-50
2022/09/09 06:51:23;;;;;;;2.97;1.48;;;;;;;20.19;67.36;96668.63;10524134;28;20487;-50
2022/09/09 06:56:44;;;;;;;3.33;1.30;;;;;;;20.19;67.35;96676.72;10518562;28;20047;-49
2022/09/09 07:02:12;;;;;;;3.53;1.60;;;;;;;20.20;67.17;96672.88;10537069;28;20113;-48
2022/09/09 07:07:32;;;;;;;3.40;1.50;;;;;;;20.18;67.24;96675.13;10522524;28;20048;-47
2022/09/09 07:12:52;;;;;;;2.80;1.48;;;;;;;20.19;67.26;96676.72;10537764;28;20052;-49
2022/09/09 07:18:12;;;;;;;4.43;1.80;;;;;;;20.19;67.29;96674.03;10535662;28;20040;-47
2022/09/09 07:23:32;;;;;;;3.90;1.65;;;;;;;20.19;67.27;96673.22;10537108;28;20044;-49
2022/09/09 07:28:53;;;;;;;2.35;1.38;;;;;;;20.20;67.17;96672.88;10537403;28;20050;-46
2022/09/09 07:34:14;;;;;;;3.95;1.75;;;;;;;20.19;67.22;96668.63;10535127;28;20059;-50
2022/09/09 07:39:34;;;;;;;4.43;1.50;;;;;;;20.18;67.14;96672.44;10556236;28;20410;-48
2022/09/09 07:44:54;;;;;;;4.00;1.63;;;;;;;20.19;67.18;96671.31;10559709;28;20048;-48
2022/09/09 07:50:15;;;;;;;3.33;1.63;;;;;;;20.19;67.05;96674.03;10531326;28;20138;-47
2022/09/09 07:55:35;;;;;;;2.03;1.20;;;;;;;20.19;67.12;96684.03;10559431;28;20055;-50
2022/09/09 08:00:55;;;;;;;3.30;1.48;;;;;;;20.19;67.05;96673.22;10583389;28;20117;-48
2022/09/09 08:06:14;;;;;;;2.97;1.30;;;;;;;20.18;66.71;96679.75;10562040;28;20052;-50
2022/09/09 08:11:35;;;;;;;2.83;1.60;;;;;;;20.17;66.86;96681.69;10600230;28;20089;-48
2022/09/09 08:16:57;;;;;;;2.28;1.38;;;;;;;20.18;66.80;96691.38;10556061;28;20058;-50
2022/09/09 08:22:18;;;;;;;11.40;2.72;;;;;;;20.17;66.90;96694.41;10558254;28;20407;-46
2022/09/09 08:27:38;;;;;;;4.50;1.70;;;;;;;20.18;66.79;96709.50;10561581;28;20048;-49
2022/09/09 08:32:58;;;;;;;9.02;1.90;;;;;;;20.17;66.79;96711.44;10563866;28;20043;-51
2022/09/09 08:38:18;;;;;;;7.22;2.78;;;;;;;20.19;66.99;96708.38;10549975;28;20063;-52
2022/09/09 08:43:39;;;;;;;5.90;1.80;;;;;;;20.19;66.91;96705.66;10545145;28;20047;-51
2022/09/09 08:49:02;;;;;;;4.82;1.70;;;;;;;20.19;67.16;96700.25;10527223;28;20407;-52
2022/09/09 08:54:22;;;;;;;3.95;1.40;;;;;;;20.18;67.10;96699.47;10556205;28;20044;-49
2022/09/09 08:59:42;;;;;;;2.03;1.35;;;;;;;20.18;67.23;96704.88;10523885;28;20052;-52
2022/09/09 09:05:20;;;;;;;3.15;1.30;;;;;;;20.18;67.02;96707.59;10528372;28;20052;-52
2022/09/09 09:10:47;;;;;;;;;;;;;;;20.18;67.06;96709.50;10527125;28;20036;-50
2022/09/09 09:16:30;;;;;;;1.80;1.05;;;;;;;20.18;66.95;96706.81;10504771;28;19924;-52
2022/09/09 09:22:17;;;;;;;1.02;0.93;;;;;;;20.17;66.80;96703.31;10537532;28;20055;-49
2022/09/09 09:28:00;;;;;;;1.45;1.00;;;;;;;20.17;66.70;96708.72;10530700;28;20037;-49
2022/09/09 09:33:29;;;;;;;2.00;1.17;;;;;;;20.18;66.69;96712.22;10522242;28;20410;-51
2022/09/09 09:38:59;;;;;;;2.00;1.20;;;;;;;20.17;66.64;96697.09;10545796;28;20410;-51
2022/09/09 09:44:32;;;;;;;2.00;0.90;;;;;;;20.15;66.62;96702.88;10525489;28;20056;-52
2022/09/09 09:50:02;;;;;;;1.15;0.90;;;;;;;20.16;66.69;96696.31;10549969;28;20093;-52
2022/09/09 09:55:29;;;;;;;1.85;1.20;;;;;;;20.15;66.54;96687.41;10547020;28;20052;-52
2022/09/09 10:00:51;;;;;;;1.77;1.10;;;;;;;20.16;66.35;96682.78;10541018;28;20104;-51
2022/09/09 10:06:11;;;;;;;1.63;1.10;;;;;;;20.14;66.58;96677.72;10524534;28;20052;-52
2022/09/09 10:11:46;;;;;;;4.22;1.60;;;;;;;20.15;66.56;96681.22;10587106;28;20407;-52
2022/09/09 10:17:19;;;;;;;5.18;1.92;;;;;;;20.18;66.55;96674.34;10567271;28;20040;-51
2022/09/09 10:22:44;;;;;;;4.90;1.80;;;;;;;20.15;66.58;96668.47;10549568;28;20513;-50
2022/09/09 10:28:18;;;;;;;5.40;1.88;;;;;;;20.16;66.56;96655.75;10518558;28;20058;-51
2022/09/09 10:34:20;;;;;;;6.97;2.05;;;;;;;20.19;66.53;96652.38;10557279;28;20055;-51
2022/09/09 10:39:43;;;;;;;7.22;2.35;;;;;;;20.17;66.56;96637.59;10553575;28;20044;-51
2022/09/09 10:45:22;;;;;;;6.90;2.30;;;;;;;20.18;66.61;96642.69;10536877;28;20052;-51
2022/09/09 10:51:10;;;;;;;6.43;2.15;;;;;;;20.18;66.46;96650.00;10526117;28;20396;-51
2022/09/09 10:56:30;;;;;;;;;;;;;;;20.19;66.49;96643.47;10539837;28;20096;-52
2022/09/09 11:01:53;;;;;;;8.50;2.50;;;;;;;20.19;66.49;96646.97;10537725;28;19985;-52
2022/09/09 11:07:21;;;;;;;7.78;2.65;;;;;;;20.19;66.20;96638.88;10537617;28;20063;-50
2022/09/09 11:12:41;;;;;;;8.18;2.60;;;;;;;20.20;66.29;96643.13;10524791;28;20044;-51
2022/09/09 11:18:04;;;;;;;9.38;2.65;;;;;;;20.19;66.17;96636.16;10540183;28;20533;-51
2022/09/09 11:23:34;;;;;;;7.30;2.47;;;;;;;20.20;66.13;96626.91;10516372;28;20055;-51
2022/09/09 11:29:14;;;;;;;7.60;2.70;;;;;;;20.21;66.09;96647.44;10548433;28;20142;-50
2022/09/09 11:35:32;;;;;;;8.23;2.75;;;;;;;20.21;65.84;96652.84;10539111;28;20051;-51
2022/09/09 11:41:03;;;;;;;6.75;2.50;;;;;;;20.22;66.07;96635.47;10321254;28;20050;-50
2022/09/09 11:46:33;;;;;;;7.93;2.90;;;;;;;20.22;66.09;96632.78;10534867;28;20414;-50
2022/09/09 11:51:54;;;;;;;5.65;2.25;;;;;;;20.23;66.04;96631.66;10529301;28;20055;-52
2022/09/09 11:57:25;;;;;;;9.23;2.47;;;;;;;20.24;65.81;96643.28;10532404;28;20048;-52
2022/09/09 12:02:52;;;;;;;5.75;2.30;;;;;;;20.24;66.15;96637.84;10544474;28;20063;-50
2022/09/09 12:08:17;;;;;;;5.03;2.30;;;;;;;20.24;66.21;96633.25;10533562;28;20063;-50
2022/09/09 12:13:37;;;;;;;6.00;2.60;;;;;;;20.25;66.39;96642.16;10557149;28;20051;-52
2022/09/09 12:19:15;;;;;;;5.00;2.15;;;;;;;20.24;66.26;96633.25;10543054;28;20048;-52
2022/09/09 12:24:51;;;;;;;4.80;2.10;;;;;;;20.25;66.24;96636.75;10528240;28;20048;-51
2022/09/09 12:30:15;;;;;;;6.28;2.22;;;;;;;20.23;66.17;96631.66;10557311;28;20040;-51
2022/09/09 12:35:36;;;;;;;3.30;1.52;;;;;;;20.23;66.26;96642.50;10541642;28;20480;-52
2022/09/09 12:40:57;;;;;;;4.93;1.85;;;;;;;20.23;66.28;96645.19;10543400;28;20147;-51
2022/09/09 12:46:22;;;;;;;3.40;1.77;;;;;;;20.22;66.24;96648.22;10542566;28;20048;-51
2022/09/09 12:51:43;;;;;;;3.45;1.52;;;;;;;20.21;66.27;96647.44;10543461;28;20457;-51
2022/09/09 12:57:04;;;;;;;4.63;1.88;;;;;;;20.21;66.17;96660.16;10530098;28;20052;-52
2022/09/09 13:02:25;;;;;;;4.20;1.55;;;;;;;20.21;66.19;96684.50;10540943;28;20377;-51
2022/09/09 13:07:45;;;;;;;2.97;1.48;;;;;;;20.21;66.23;96696.13;10530836;28;20052;-52
2022/09/09 13:13:16;;;;;;;2.80;1.50;;;;;;;20.20;66.22;96697.22;10542171;28;20044;-50
2022/09/09 13:18:38;;;;;;;1.95;1.25;;;;;;;20.20;66.23;96680.22;10530150;28;20060;-51
2022/09/09 13:23:59;;;;;;;2.50;1.20;;;;;;;20.19;66.16;96698.38;10531661;28;20047;-51
2022/09/09 13:29:19;;;;;;;1.73;1.20;;;;;;;20.19;66.17;96682.16;10530555;28;20055;-51
2022/09/09 13:34:39;;;;;;;3.20;1.40;;;;;;;20.19;66.41;96678.63;10540283;28;20051;-52
2022/09/09 13:39:58;;;;;;;2.88;1.15;;;;;;;20.17;65.92;96654.63;10566688;28;20502;-52
2022/09/09 13:45:23;;;;;;;2.40;0.90;;;;;;;20.17;66.04;96646.53;10551917;28;20517;-50
2022/09/09 13:50:42;;;;;;;2.05;0.98;;;;;;;20.17;66.17;96635.72;10550264;28;20096;-51
2022/09/09 13:56:02;;;;;;;2.03;0.95;;;;;;;20.16;66.16;96636.81;10587079;28;20040;-51
2022/09/09 14:01:21;;;;;;;3.47;1.00;;;;;;;20.15;66.10;96630.63;10551401;28;20502;-52
2022/09/09 14:06:40;;;;;;;2.85;1.05;;;;;;;20.17;65.98;96633.00;10540184;28;20059;-51
2022/09/09 14:12:00;;;;;;;3.15;1.00;;;;;;;20.15;66.02;96627.13;10539640;28;20044;-52
2022/09/09 14:17:19;;;;;;;2.00;1.05;;;;;;;20.15;65.95;96621.72;10549526;28;20047;-52
2022/09/09 14:22:41;;;;;;;2.50;1.00;;;;;;;20.14;66.05;96612.81;10578331;28;20048;-52
2022/09/09 14:28:01;;;;;;;2.00;0.80;;;;;;;20.15;66.09;96611.69;10549422;28;20058;-52
2022/09/09 14:33:21;;;;;;;2.35;1.02;;;;;;;20.16;66.16;96596.25;10541704;28;20059;-49
2022/09/09 14:38:41;;;;;;;3.17;1.00;;;;;;;20.15;66.07;96591.97;10552314;28;20056;-52
2022/09/09 14:44:01;;;;;;;1.73;0.93;;;;;;;20.15;66.08;96600.09;10538356;28;20139;-51
2022/09/09 14:49:21;;;;;;;1.60;1.00;;;;;;;20.16;66.07;96598.94;10527422;28;20048;-51
2022/09/09 14:54:40;;;;;;;1.52;0.80;;;;;;;20.15;66.00;96600.88;10550745;28;20044;-52
2022/09/09 15:00:00;;;;;;;1.00;0.88;;;;;;;20.15;66.16;96605.50;10529670;28;20060;-51
2022/09/09 15:05:20;;;;;;;0.98;0.70;;;;;;;20.17;66.20;96605.94;10551150;28;20057;-51
2022/09/09 15:10:39;;;;;;;2.50;0.95;;;;;;;20.15;66.14;96600.09;10540907;28;20050;-51
2022/09/09 15:16:19;;;;;;;2.80;0.90;;;;;;;20.16;66.09;96588.13;10538243;28;20488;-52
2022/09/09 15:21:39;;;;;;;1.65;1.00;;;;;;;20.14;66.22;96591.16;10562377;28;20376;-52
2022/09/09 15:26:58;;;;;;;1.95;1.10;;;;;;;20.15;66.03;96589.28;10533685;28;20048;-51
2022/09/09 15:32:18;;;;;;;1.30;0.82;;;;;;;20.15;66.22;96591.97;10550619;28;20403;-52
2022/09/09 15:37:38;;;;;;;1.40;0.80;;;;;;;20.16;66.20;96588.13;10550198;28;20044;-52
2022/09/09 15:42:57;;;;;;;0.93;0.77;;;;;;;20.15;66.09;96581.16;10542682;28;20505;-51
2022/09/09 15:48:17;;;;;;;0.90;0.77;;;;;;;20.16;66.26;96585.44;10546807;28;20464;-51
2022/09/09 15:53:38;;;;;;;1.85;0.90;;;;;;;20.15;66.17;96586.56;10551382;28;20048;-51
2022/09/09 15:58:59;;;;;;;1.35;0.82;;;;;;;20.14;66.08;96588.47;10523683;28;20484;-52
2022/09/09 16:04:25;;;;;;;1.20;0.80;;;;;;;20.15;66.15;96583.84;10536210;28;20052;-52
2022/09/09 16:09:45;;;;;;;1.23;0.88;;;;;;;20.14;66.17;96576.84;10537071;28;20430;-51
2022/09/09 16:15:05;;;;;;;0.93;0.85;;;;;;;20.13;66.15;96575.25;10550736;28;20039;-52
2022/09/09 16:20:25;;;;;;;3.70;1.13;;;;;;;20.13;66.20;96583.38;10534666;28;20501;-50
2022/09/09 16:25:53;;;;;;;3.15;1.27;;;;;;;20.11;66.06;96591.03;10529786;28;20119;-49
2022/09/09 16:31:15;;;;;;;1.27;0.90;;;;;;;20.07;66.15;96596.34;10543330;28;20055;-51
2022/09/09 16:36:38;;;;;;;1.98;1.10;;;;;;;20.05;66.21;96597.78;10549371;28;20044;-49
2022/09/09 16:41:58;;;;;;;2.00;1.00;;;;;;;20.02;66.10;96601.94;10574879;28;20077;-49
2022/09/09 16:47:17;;;;;;;2.42;1.13;;;;;;;20.01;65.96;96597.63;10551134;28;20056;-49
2022/09/09 16:52:37;;;;;;;3.45;0.90;;;;;;;19.99;66.03;96593.69;10585128;28;20062;-50
2022/09/09 16:57:56;;;;;;;2.85;0.90;;;;;;;19.96;66.17;96597.88;10530803;28;20052;-50
2022/09/09 17:03:16;;;;;;;2.10;0.80;;;;;;;19.97;66.11;96602.13;10565097;28;20044;-51
2022/09/09 17:08:35;;;;;;;1.35;1.15;;;;;;;20.00;66.18;96596.06;10577619;28;20189;-50
2022/09/09 17:13:55;;;;;;;2.92;1.00;;;;;;;20.01;66.09;96602.25;10563850;28;20486;-50
2022/09/09 17:19:15;;;;;;;2.08;0.80;;;;;;;20.02;66.11;96604.66;10546866;28;20054;-52
2022/09/09 17:24:38;;;;;;;1.52;0.98;;;;;;;20.02;66.14;96606.56;10573264;28;20122;-50
2022/09/09 17:29:58;;;;;;;1.75;0.95;;;;;;;20.03;66.13;96617.06;10555395;28;20063;-49
2022/09/09 17:35:17;;;;;;;2.63;0.90;;;;;;;20.03;66.10;96617.06;10576564;28;20403;-48
2022/09/09 17:40:38;;;;;;;3.20;1.05;;;;;;;20.04;66.15;96623.25;10574306;28;20108;-50
2022/09/09 17:46:36;;;;;;;1.25;1.00;;;;;;;20.03;66.03;96627.06;10561839;28;20101;-49
2022/09/09 17:51:57;;;;;;;1.67;1.17;;;;;;;20.02;65.98;96637.09;10526955;28;20055;-49
2022/09/09 17:57:22;;;;;;;1.73;1.30;;;;;;;20.03;65.95;96643.28;10555062;28;20052;-49
2022/09/09 18:02:42;;;;;;;1.35;1.10;;;;;;;20.03;65.85;96646.00;10562452;28;20491;-52
2022/09/09 18:08:03;;;;;;;2.28;1.10;;;;;;;20.03;65.91;96648.69;10592331;28;20038;-50
2022/09/09 18:13:22;;;;;;;3.05;1.10;;;;;;;20.03;66.00;96654.09;10575329;28;20088;-47
2022/09/09 18:18:42;;;;;;;5.43;1.38;;;;;;;20.04;65.87;96661.09;10575200;28;20051;-49
2022/09/09 18:24:04;;;;;;;1.23;1.13;;;;;;;20.05;66.09;96670.78;10569599;28;20047;-50
2022/09/09 18:29:24;;;;;;;2.90;1.08;;;;;;;20.04;66.15;96675.41;10562886;28;20471;-47
2022/09/09 18:34:44;;;;;;;1.40;0.95;;;;;;;20.04;66.18;96672.72;10574534;28;20065;-50
2022/09/09 18:40:04;;;;;;;2.33;1.00;;;;;;;20.05;66.22;96685.13;10560025;28;20059;-48
2022/09/09 18:45:24;;;;;;;1.35;0.90;;;;;;;20.04;66.15;96677.34;10565282;28;20055;-49
2022/09/09 18:50:43;;;;;;;1.10;0.93;;;;;;;20.04;66.31;96677.34;10555685;28;20055;-49
2022/09/09 18:56:05;;;;;;;0.70;0.70;;;;;;;20.04;66.27;96685.44;10550390;28;20507;-50
2022/09/09 19:01:25;;;;;;;1.08;0.98;;;;;;;20.04;66.28;96690.84;10513065;28;20044;-51
2022/09/09 19:06:47;;;;;;;1.25;1.00;;;;;;;20.05;66.31;96673.50;10565461;28;20052;-47
2022/09/09 19:12:06;;;;;;;2.15;0.98;;;;;;;20.04;66.33;96678.13;10563273;28;20126;-51
2022/09/09 19:17:27;;;;;;;1.75;1.00;;;;;;;20.05;66.48;96678.91;10540422;28;20415;-49
2022/09/09 19:22:47;;;;;;;1.17;0.80;;;;;;;20.04;66.40;96672.72;10576527;28;20074;-48
2022/09/09 19:28:06;;;;;;;2.03;0.93;;;;;;;20.04;66.37;96677.34;10553993;28;20110;-47
2022/09/09 19:33:26;;;;;;;1.40;1.10;;;;;;;20.04;66.38;96693.56;10554311;28;20047;-50
2022/09/09 19:38:46;;;;;;;2.00;0.80;;;;;;;20.04;66.41;96693.56;10556092;28;20048;-50
2022/09/09 19:44:07;;;;;;;2.53;0.85;;;;;;;20.04;66.42;96705.16;10535507;28;20048;-48
2022/09/09 19:49:27;;;;;;;2.97;0.80;;;;;;;20.04;66.34;96699.75;10540473;28;20441;-52
2022/09/09 19:54:46;;;;;;;1.10;0.80;;;;;;;20.05;66.46;96700.53;10543945;28;20052;-47
2022/09/09 20:00:07;;;;;;;0.90;0.90;;;;;;;20.04;66.50;96694.34;10571357;28;20052;-49
2022/09/09 20:05:31;;;;;;;0.90;0.90;;;;;;;20.05;66.50;96700.53;10546658;28;20048;-48
2022/09/09 20:10:53;;;;;;;0.98;0.88;;;;;;;20.04;66.40;96707.84;10544203;28;20052;-50
2022/09/09 20:16:15;;;;;;;1.50;0.90;;;;;;;20.04;66.50;96705.16;10567108;28;20039;-50
2022/09/09 20:21:38;;;;;;;3.00;0.90;;;;;;;20.03;66.42;96702.78;10543565;28;20510;-46
2022/09/09 20:26:58;;;;;;;1.88;0.77;;;;;;;20.03;66.55;96695.47;10543829;28;20071;-52
2022/09/09 20:32:17;;;;;;;1.35;0.80;;;;;;;20.03;66.64;96698.19;10531605;28;20055;-49
2022/09/09 20:37:39;;;;;;;1.88;0.80;;;;;;;20.04;66.59;96693.56;10556252;28;20054;-49
2022/09/09 20:42:59;;;;;;;2.22;1.23;;;;;;;20.03;66.57;96689.25;10566762;28;20051;-50
2022/09/09 20:48:18;;;;;;;1.08;0.80;;;;;;;20.03;66.43;96683.84;10556136;28;20525;-51
2022/09/09 20:53:38;;;;;;;1.77;0.90;;;;;;;20.03;66.54;96683.84;10556903;28;20499;-51
2022/09/09 20:58:58;;;;;;;1.38;1.05;;;;;;;20.03;66.46;96673.03;10577468;28;20051;-50
2022/09/09 21:04:18;;;;;;;0.88;0.80;;;;;;;20.03;66.56;96667.63;10545551;28;20044;-51
2022/09/09 21:09:38;;;;;;;1.20;1.10;;;;;;;20.02;66.37;96663.34;10572886;28;20054;-51
2022/09/09 21:14:57;;;;;;;2.15;0.95;;;;;;;20.02;66.44;96657.94;10592765;28;20047;-49
2022/09/09 21:20:17;;;;;;;1.20;0.90;;;;;;;20.03;66.51;96646.00;10542483;28;20059;-48
2022/09/09 21:25:36;;;;;;;2.28;0.90;;;;;;;20.03;66.52;96651.41;10561699;28;20526;-48
2022/09/09 21:30:56;;;;;;;1.80;0.90;;;;;;;20.02;66.29;96649.84;10560964;28;20044;-50
2022/09/09 21:36:15;;;;;;;1.77;1.00;;;;;;;20.00;66.32;96650.16;10586912;28;20036;-47
2022/09/09 21:41:35;;;;;;;1.02;0.90;;;;;;;20.01;66.21;96649.00;10567853;28;20051;-47
2022/09/09 21:46:54;;;;;;;1.00;0.90;;;;;;;20.02;66.17;96652.53;10574424;28;20410;-49
2022/09/09 21:52:14;;;;;;;1.05;0.88;;;;;;;20.01;66.22;96656.34;10563519;28;20063;-49
2022/09/09 21:57:34;;;;;;;0.82;0.80;;;;;;;20.01;66.15;96656.34;10555599;28;20510;-51
2022/09/09 22:02:53;;;;;;;1.42;0.90;;;;;;;20.01;66.21;96661.75;10574254;28;20040;-50
2022/09/09 22:08:15;;;;;;;1.00;0.90;;;;;;;20.00;66.12;96644.75;10554150;28;20101;-52
2022/09/09 22:13:36;;;;;;;1.42;1.02;;;;;;;20.00;65.94;96630.44;10578597;28;20122;-50
2022/09/09 22:18:56;;;;;;;1.30;0.80;;;;;;;19.99;65.95;96636.97;10555110;28;20059;-49
2022/09/09 22:24:16;;;;;;;4.30;0.90;;;;;;;20.00;66.01;96671.00;10541434;28;20089;-51
2022/09/09 22:29:35;;;;;;;1.55;0.80;;;;;;;20.01;66.02;96705.00;10576025;28;20073;-51
2022/09/09 22:34:55;;;;;;;1.30;0.93;;;;;;;20.00;65.97;96700.75;10561171;28;20066;-49
2022/09/09 22:40:14;;;;;;;0.82;0.82;;;;;;;20.00;66.00;96701.53;10555629;28;20510;-49
2022/09/09 22:45:34;;;;;;;1.30;0.77;;;;;;;19.99;66.06;96686.41;10554052;28;20039;-51
2022/09/09 22:51:01;;;;;;;1.10;0.70;;;;;;;19.99;66.09;96670.19;10564507;28;20131;-51
2022/09/09 22:56:21;;;;;;;1.98;0.82;;;;;;;20.00;66.07;96692.63;10561707;28;20048;-51
2022/09/09 23:01:40;;;;;;;1.17;0.70;;;;;;;19.99;66.21;96681.00;10551726;28;20399;-50
2022/09/09 23:07:00;;;;;;;1.00;0.90;;;;;;;20.00;66.21;96695.34;10552330;28;20052;-52
2022/09/09 23:12:21;;;;;;;2.00;0.80;;;;;;;20.00;66.15;96693.41;10538257;28;20048;-51
2022/09/09 23:17:40;;;;;;;0.70;0.70;;;;;;;19.99;66.22;96689.13;10542660;28;20055;-51
2022/09/09 23:23:00;;;;;;;1.90;0.77;;;;;;;19.99;66.27;96683.72;10577742;28;20044;-51
2022/09/09 23:28:19;;;;;;;1.00;0.90;;;;;;;19.99;66.23;96682.91;10554810;28;20383;-50
2022/09/09 23:33:39;;;;;;;1.05;0.77;;;;;;;20.00;66.26;96679.91;10580043;28;20066;-50
2022/09/09 23:39:03;;;;;;;0.63;0.60;;;;;;;19.99;66.23;96680.22;10564043;28;20051;-52
2022/09/09 23:44:23;;;;;;;0.70;0.70;;;;;;;19.99;66.35;96674.81;10550218;28;20044;-50
2022/09/09 23:49:43;;;;;;;1.85;0.73;;;;;;;19.98;66.28;96667.84;10530046;28;20090;-49
2022/09/09 23:55:04;;;;;;;1.23;0.80;;;;;;;19.98;66.27;96684.06;10554468;28;20040;-50
